Time;durP1;ratioP1;P1;durP2;ratioP2;P2;SDS_P1;SDS_P2;PMS_P1;PMS_P2;Temp;Humidity;BMP_temperature;BMP_pressure;BME280_temperature;BME280_humidity;BME280_pressure;Samples;Min_cycle;Max_cycle;Signal;HPM_P1;HPM_P2
2022/01/25 00:08:54;;;;;;;6.23;4.80;;;;;;;-1.13;86.82;101331.75;5112960;28;20273;-69
2022/01/25 00:28:18;;;;;;;6.47;5.30;;;;;;;-1.10;87.66;101310.69;5112548;28;20289;-68
2022/01/25 00:30:58;;;;;;;5.57;4.97;;;;;;;-1.06;87.70;101319.22;5112182;28;20297;-68
2022/01/25 00:33:25;;;;;;;8.23;5.90;;;;;;;-1.19;88.13;101295.44;5112740;28;20261;-67
2022/01/25 00:35:51;;;;;;;7.37;5.23;;;;;;;-1.11;88.47;101311.59;5094248;28;20269;-69
2022/01/25 00:38:16;;;;;;;7.33;5.47;;;;;;;-1.12;89.00;101317.75;5112410;28;20285;-66
2022/01/25 00:40:42;;;;;;;6.27;5.37;;;;;;;-1.04;88.89;101325.22;5094344;28;20031;-69
2022/01/25 00:43:07;;;;;;;7.27;5.93;;;;;;;-1.13;88.65;101300.38;5112295;28;20500;-65
2022/01/25 00:45:33;;;;;;;7.77;5.30;;;;;;;-0.96;89.32;101321.31;5115193;28;20508;-69
2022/01/25 00:48:02;;;;;;;6.13;4.57;;;;;;;-1.06;88.32;101307.00;5116773;28;20126;-69
2022/01/25 00:50:31;;;;;;;6.18;5.28;;;;;;;-1.04;88.78;101320.84;5116512;28;20036;-69
2022/01/25 00:55:23;;;;;;;7.30;5.43;;;;;;;-0.96;88.19;101307.38;5116379;28;20273;-69
2022/01/25 00:57:48;;;;;;;6.10;5.47;;;;;;;-0.93;88.43;101308.06;5097730;28;20059;-66
2022/01/25 01:00:14;;;;;;;7.13;5.27;;;;;;;-0.88;88.18;101312.22;5116773;28;20035;-69
2022/01/25 01:02:40;;;;;;;7.90;5.93;;;;;;;-0.97;88.56;101305.69;5116571;28;20032;-68
2022/01/25 01:05:07;;;;;;;8.63;5.10;;;;;;;-0.93;88.30;101302.00;5116435;28;20276;-68
2022/01/25 01:07:33;;;;;;;6.03;5.20;;;;;;;-1.02;88.78;101285.00;5116257;28;20028;-66
2022/01/25 01:10:00;;;;;;;7.10;5.23;;;;;;;-0.99;88.18;101289.22;5116178;28;20277;-68
2022/01/25 01:15:11;;;;;;;5.37;4.87;;;;;;;-0.96;88.40;101276.84;5116306;28;20349;-67
2022/01/25 01:28:51;;;;;;;6.50;5.57;;;;;;;-0.88;88.84;101283.47;5116058;28;20304;-68
2022/01/25 01:31:34;;;;;;;5.53;5.00;;;;;;;-0.75;88.57;101310.72;5095266;28;20353;-67
2022/01/25 01:47:34;;;;;;;4.07;3.50;;;;;;;-0.72;88.92;101305.31;5095735;28;20274;-66
2022/01/25 01:50:02;;;;;;;6.40;5.13;;;;;;;-0.69;89.21;101310.41;5095869;28;20044;-68
2022/01/25 01:52:29;;;;;;;6.35;5.03;;;;;;;-0.91;88.59;101263.53;5095096;28;20832;-66
2022/01/25 01:54:55;;;;;;;6.67;5.57;;;;;;;-0.84;88.79;101279.78;5094831;28;20182;-67
2022/01/25 01:57:20;;;;;;;7.50;5.67;;;;;;;-0.79;89.12;101277.78;5093615;28;20294;-65
2022/01/25 01:59:46;;;;;;;8.70;5.73;;;;;;;-0.90;89.39;101246.09;5094972;28;20039;-67
2022/01/25 02:02:11;;;;;;;9.23;5.33;;;;;;;-0.68;89.51;101281.53;5094667;28;20035;-65
2022/01/25 02:04:37;;;;;;;5.17;4.67;;;;;;;-0.71;89.28;101291.31;5094617;28;20036;-67
2022/01/25 02:07:03;;;;;;;6.83;6.13;;;;;;;-0.66;90.29;101287.53;5094934;28;20121;-67
2022/01/25 02:09:29;;;;;;;8.60;5.27;;;;;;;-0.64;90.17;101287.47;5094936;28;20092;-66
2022/01/25 02:11:55;;;;;;;8.80;6.37;;;;;;;-0.67;90.29;101283.22;5076088;28;20368;-69
2022/01/25 02:14:20;;;;;;;8.97;5.50;;;;;;;-0.68;90.14;101265.00;5094710;28;20119;-65
2022/01/25 02:24:46;;;;;;;5.37;4.63;;;;;;;-0.50;89.48;101258.84;5114724;28;20288;-65
2022/01/25 02:27:12;;;;;;;5.40;4.73;;;;;;;-0.38;89.77;101262.56;5114565;28;20285;-65
2022/01/25 02:29:38;;;;;;;7.60;5.53;;;;;;;-0.42;89.51;101251.41;5114895;28;20312;-66
2022/01/25 02:32:04;;;;;;;6.60;5.90;;;;;;;-0.44;89.53;101248.03;5097447;28;20269;-68
2022/01/25 02:34:30;;;;;;;6.30;5.23;;;;;;;-0.33;89.37;101253.53;5115633;28;20031;-65
2022/01/25 02:36:56;;;;;;;7.97;5.53;;;;;;;-0.38;88.89;101244.25;5114702;28;20297;-69
2022/01/25 02:39:22;;;;;;;14.07;5.80;;;;;;;-0.28;89.48;101247.25;5096137;28;20035;-68
2022/01/25 02:41:47;;;;;;;7.57;5.47;;;;;;;-0.21;89.01;101259.91;5115503;28;20308;-69
2022/01/25 02:44:23;;;;;;;9.30;6.23;;;;;;;-0.19;88.73;101251.97;5097805;28;20162;-69
2022/01/25 02:49:16;;;;;;;6.33;5.63;;;;;;;-0.20;89.36;101239.81;5096340;28;20277;-64
2022/01/25 02:51:50;;;;;;;14.03;6.50;;;;;;;-0.08;89.04;101252.25;5114650;28;20516;-65
2022/01/25 02:54:16;;;;;;;10.60;7.23;;;;;;;-0.12;89.33;101235.00;5115649;28;20256;-66
2022/01/25 02:56:44;;;;;;;9.00;6.70;;;;;;;-0.04;89.14;101249.38;5120714;28;20368;-66
2022/01/25 02:59:12;;;;;;;8.55;5.72;;;;;;;-0.01;89.04;101240.50;5120989;28;20027;-67
2022/01/25 03:01:38;;;;;;;9.83;6.30;;;;;;;0.00;89.07;101229.13;5123117;28;20064;-69
2022/01/25 03:04:06;;;;;;;8.37;6.97;;;;;;;0.09;88.99;101231.22;5118835;28;20356;-68
2022/01/25 03:06:31;;;;;;;7.97;6.27;;;;;;;0.14;89.13;101226.59;5114889;28;20327;-66
2022/01/25 03:08:57;;;;;;;8.83;6.30;;;;;;;0.16;88.53;101232.59;5114072;28;20262;-65
2022/01/25 03:11:25;;;;;;;7.53;6.33;;;;;;;0.16;88.66;101232.59;5113854;28;20075;-70
2022/01/25 03:13:55;;;;;;;11.50;6.00;;;;;;;0.18;89.07;101228.09;5113767;28;20272;-66
2022/01/25 03:16:37;;;;;;;8.40;6.77;;;;;;;0.05;89.20;101213.16;5113823;28;20269;-69
2022/01/25 03:19:31;;;;;;;7.93;6.13;;;;;;;0.11;89.47;101231.16;5095395;28;20273;-67
2022/01/25 03:22:13;;;;;;;11.60;7.27;;;;;;;0.06;89.23;101226.16;5113495;28;20276;-66
2022/01/25 03:24:39;;;;;;;12.57;8.73;;;;;;;0.12;89.73;101224.97;5095680;28;20306;-65
2022/01/25 03:27:05;;;;;;;8.20;7.13;;;;;;;0.19;88.91;101227.16;5113667;28;20265;-66
2022/01/25 03:29:30;;;;;;;9.40;7.03;;;;;;;0.19;89.27;101231.56;5113824;28;20183;-67
2022/01/25 03:31:57;;;;;;;9.80;7.63;;;;;;;0.00;89.16;101184.63;5113786;28;20130;-69
2022/01/25 03:34:22;;;;;;;8.90;7.40;;;;;;;0.16;89.23;101216.88;5113572;28;20257;-67
2022/01/25 03:36:48;;;;;;;9.30;6.93;;;;;;;0.15;89.05;101217.78;5113349;28;20039;-65
2022/01/25 03:39:13;;;;;;;11.43;8.40;;;;;;;0.10;89.18;101206.72;5113026;28;20123;-65
2022/01/25 03:41:39;;;;;;;10.63;8.17;;;;;;;0.18;88.97;101215.00;5113257;28;20524;-64
2022/01/25 03:44:05;;;;;;;12.63;7.40;;;;;;;0.30;89.27;101216.13;5094801;28;20509;-66
2022/01/25 03:46:39;;;;;;;13.67;7.97;;;;;;;0.22;88.74;101206.03;5113115;28;20504;-67
2022/01/25 03:51:50;;;;;;;12.53;7.00;;;;;;;0.29;89.35;101217.88;5113398;28;20289;-67
2022/01/25 03:54:17;;;;;;;14.57;7.83;;;;;;;0.27;89.21;101217.09;5113280;28;20297;-67
2022/01/25 03:56:42;;;;;;;10.80;6.97;;;;;;;0.19;89.32;101200.97;5113039;28;20341;-66
2022/01/25 03:59:08;;;;;;;13.87;7.07;;;;;;;0.15;89.32;101193.38;5112930;28;20273;-66
2022/01/25 04:01:35;;;;;;;11.77;7.80;;;;;;;0.27;89.54;101211.00;5112938;28;20031;-65
2022/01/25 04:04:04;;;;;;;13.93;7.93;;;;;;;0.25;89.69;101199.78;5112935;28;20042;-69
2022/01/25 04:06:32;;;;;;;12.57;7.30;;;;;;;0.21;89.76;101188.63;5112766;28;20360;-68
2022/01/25 04:09:06;;;;;;;14.40;7.53;;;;;;;0.32;89.99;101202.94;5112912;28;20349;-71
2022/01/25 04:11:33;;;;;;;9.57;6.43;;;;;;;0.31;89.42;101199.47;5094584;28;20285;-66
2022/01/25 04:13:59;;;;;;;16.90;8.00;;;;;;;0.17;89.80;101179.25;5111829;28;20741;-71
2022/01/25 04:16:36;;;;;;;13.93;8.03;;;;;;;0.30;89.69;101203.84;5105854;28;20364;-68
2022/01/25 04:19:13;;;;;;;10.87;7.03;;;;;;;0.35;89.30;101205.38;5103900;28;20031;-68
2022/01/25 04:25:03;;;;;;;8.20;6.30;;;;;;;0.22;89.59;101186.84;5076682;28;20281;-69
2022/01/25 04:27:30;;;;;;;10.63;6.90;;;;;;;0.19;89.17;101185.25;5102811;28;20304;-68
2022/01/25 04:29:56;;;;;;;12.93;7.57;;;;;;;0.28;89.42;101202.22;5096118;28;20331;-68
2022/01/25 04:36:09;;;;;;;13.20;7.57;;;;;;;0.31;89.55;101199.47;5079302;28;20040;-66
2022/01/25 04:49:18;;;;;;;10.90;7.40;;;;;;;0.41;89.31;101195.38;5112315;28;20264;-69
2022/01/25 05:02:26;;;;;;;12.80;7.40;;;;;;;0.37;88.68;101183.38;5114369;28;20257;-69
2022/01/25 05:04:58;;;;;;;12.05;8.13;;;;;;;0.32;88.66;101163.63;5095736;28;20262;-68
2022/01/25 05:07:35;;;;;;;13.07;7.00;;;;;;;0.41;88.57;101178.81;5112127;28;20062;-69
2022/01/25 05:10:02;;;;;;;12.17;7.80;;;;;;;0.34;88.61;101178.31;5111954;28;20257;-70
2022/01/25 05:12:37;;;;;;;11.23;6.97;;;;;;;0.37;88.34;101185.16;5112736;28;20648;-69
2022/01/25 05:15:38;;;;;;;14.73;7.87;;;;;;;0.35;88.51;101180.00;5112562;28;20492;-68
2022/01/25 05:18:13;;;;;;;17.20;8.70;;;;;;;0.30;88.41;101172.41;5111374;28;20304;-70
2022/01/25 05:23:24;;;;;;;15.63;7.67;;;;;;;0.36;88.29;101205.28;5112368;28;20297;-70
2022/01/25 05:25:50;;;;;;;10.30;6.73;;;;;;;0.22;88.38;101182.47;5112123;28;20265;-67
2022/01/25 05:28:16;;;;;;;11.53;6.60;;;;;;;0.22;88.18;101185.09;5112196;28;20087;-69
2022/01/25 05:30:42;;;;;;;14.47;7.20;;;;;;;0.13;88.02;101175.13;5112896;28;20023;-69
2022/01/25 05:33:08;;;;;;;14.63;6.57;;;;;;;0.20;87.98;101189.56;5115930;28;20288;-69
2022/01/25 05:35:34;;;;;;;9.90;6.50;;;;;;;0.22;88.17;101199.97;5116107;28;20036;-68
2022/01/25 05:38:00;;;;;;;9.43;5.83;;;;;;;0.31;87.91;101223.03;5116170;28;20505;-68
2022/01/25 05:40:42;;;;;;;16.57;6.03;;;;;;;0.26;87.82;101210.16;5115643;28;20027;-68
2022/01/25 05:48:07;;;;;;;10.27;5.63;;;;;;;0.14;87.63;101203.00;5115548;28;20257;-62
2022/01/25 05:50:33;;;;;;;8.77;5.37;;;;;;;-0.09;88.08;101157.16;5115351;28;20268;-64
2022/01/25 05:52:58;;;;;;;11.77;5.87;;;;;;;0.03;87.78;101179.19;5112704;28;20036;-65
2022/01/25 05:55:24;;;;;;;11.30;6.00;;;;;;;0.17;88.16;101199.38;5087858;28;20031;-68
2022/01/25 05:57:49;;;;;;;12.60;5.60;;;;;;;0.14;87.85;101175.97;5099983;28;20122;-70
2022/01/25 06:00:15;;;;;;;12.03;5.87;;;;;;;0.17;87.97;101192.38;5096910;28;20035;-68
2022/01/25 06:02:40;;;;;;;7.67;5.43;;;;;;;0.20;87.76;101194.81;5095514;28;20043;-72
2022/01/25 06:05:06;;;;;;;18.33;5.60;;;;;;;0.16;87.80;101192.44;5094966;28;20542;-72
2022/01/25 06:07:33;;;;;;;9.57;5.40;;;;;;;0.18;87.85;101186.19;5094132;28;20562;-71
2022/01/25 06:09:58;;;;;;;9.83;5.40;;;;;;;0.16;87.56;101185.44;5076205;28;20028;-66
2022/01/25 06:12:24;;;;;;;10.13;6.03;;;;;;;0.05;87.82;101172.09;5076084;28;20628;-66
2022/01/25 06:14:50;;;;;;;10.57;5.63;;;;;;;-0.08;87.60;101160.59;5094056;28;20038;-69
2022/01/25 06:17:15;;;;;;;14.63;6.50;;;;;;;0.19;87.98;101208.00;5094162;28;20132;-67
2022/01/25 06:19:43;;;;;;;14.80;6.53;;;;;;;0.21;88.29;101209.59;5060171;28;20134;-69
2022/01/25 06:22:09;;;;;;;16.33;8.23;;;;;;;0.20;88.18;101202.66;5094381;28;20540;-64
2022/01/25 06:24:34;;;;;;;12.63;7.57;;;;;;;0.20;87.86;101202.66;5094341;28;20289;-69
2022/01/25 06:27:00;;;;;;;22.83;8.93;;;;;;;0.10;87.88;101191.03;5094386;28;20024;-76
2022/01/25 06:29:25;;;;;;;13.80;8.53;;;;;;;0.04;88.17;101191.38;5095314;28;20032;-70
2022/01/25 06:31:51;;;;;;;13.23;8.63;;;;;;;-0.16;89.01;101157.56;5094868;28;20482;-65
2022/01/25 06:34:16;;;;;;;21.43;9.00;;;;;;;0.02;89.18;101185.38;5094158;28;20040;-69
2022/01/25 06:36:42;;;;;;;17.40;9.13;;;;;;;0.07;89.11;101183.34;5075795;28;20040;-67
2022/01/25 06:39:08;;;;;;;15.83;8.70;;;;;;;0.03;88.97;101176.59;5093972;28;20039;-69
2022/01/25 06:41:37;;;;;;;22.33;9.10;;;;;;;0.02;88.75;101166.19;5093769;28;20051;-69
2022/01/25 06:44:04;;;;;;;15.67;8.57;;;;;;;0.07;89.15;101164.16;5093391;28;20036;-72
2022/01/25 06:46:29;;;;;;;14.07;8.10;;;;;;;0.08;89.02;101145.75;5075902;28;20270;-68
2022/01/25 06:48:55;;;;;;;12.00;8.30;;;;;;;0.11;88.66;101145.56;5093861;28;20269;-72
2022/01/25 06:51:20;;;;;;;19.10;8.60;;;;;;;0.13;88.80;101164.66;5093970;28;20039;-67
2022/01/25 06:53:46;;;;;;;20.30;8.57;;;;;;;-0.43;88.75;101077.03;5094039;28;20474;-68
2022/01/25 06:56:12;;;;;;;15.43;9.57;;;;;;;0.20;89.01;101175.63;5075535;28;20114;-68
2022/01/25 06:58:40;;;;;;;17.70;8.07;;;;;;;0.20;88.37;101166.00;5093658;28;20407;-71
2022/01/25 07:01:06;;;;;;;12.00;7.78;;;;;;;0.19;88.49;101180.03;5093913;28;20517;-70
2022/01/25 07:03:32;;;;;;;15.37;8.13;;;;;;;0.12;88.12;101168.22;5093985;28;20040;-68
2022/01/25 07:05:57;;;;;;;15.07;7.43;;;;;;;0.21;88.53;101170.31;5093867;28;20028;-69
2022/01/25 07:08:23;;;;;;;15.37;7.93;;;;;;;0.14;87.98;101168.13;5093520;28;20055;-68
2022/01/25 07:10:48;;;;;;;16.70;8.40;;;;;;;0.04;88.41;101164.34;5093448;28;20043;-68
2022/01/25 07:13:14;;;;;;;13.30;7.73;;;;;;;0.07;88.44;101154.53;5093598;28;20032;-70
2022/01/25 07:15:40;;;;;;;10.47;7.13;;;;;;;0.16;88.72;101159.25;5094289;28;20116;-69
2022/01/25 07:18:05;;;;;;;7.47;6.30;;;;;;;0.21;87.86;101167.69;5094030;28;20044;-70
2022/01/25 07:20:31;;;;;;;13.33;6.83;;;;;;;0.22;87.53;101174.59;5093050;28;20059;-69
2022/01/25 07:22:56;;;;;;;10.67;5.70;;;;;;;0.13;87.93;101175.13;5093306;28;20184;-67
2022/01/25 07:25:23;;;;;;;9.83;6.97;;;;;;;0.21;87.96;101186.00;5093220;28;20036;-70
2022/01/25 07:27:48;;;;;;;11.63;5.83;;;;;;;0.21;87.42;101183.41;5093623;28;20039;-70
2022/01/25 07:30:14;;;;;;;10.57;5.43;;;;;;;0.22;87.91;101171.16;5093142;28;20775;-66
2022/01/25 07:32:39;;;;;;;8.67;6.00;;;;;;;0.26;87.31;101173.50;5092648;28;20403;-67
2022/01/25 07:35:11;;;;;;;9.27;6.17;;;;;;;0.21;87.59;101161.59;5092822;28;20048;-67
2022/01/25 07:37:37;;;;;;;7.00;5.10;;;;;;;-0.05;87.63;101118.53;5092895;28;20301;-66
2022/01/25 07:40:03;;;;;;;9.27;6.53;;;;;;;0.18;87.47;101159.16;5092422;28;20036;-67
2022/01/25 07:42:32;;;;;;;14.13;5.83;;;;;;;0.18;87.86;101152.13;5092820;28;20114;-68
2022/01/25 07:44:58;;;;;;;8.47;5.80;;;;;;;0.24;87.65;101157.03;5092623;28;20270;-65
2022/01/25 07:47:23;;;;;;;8.03;5.00;;;;;;;0.24;87.65;101157.03;5092990;28;20250;-65
2022/01/25 07:49:49;;;;;;;13.57;7.00;;;;;;;0.27;87.78;101167.31;5092733;28;20036;-62
2022/01/25 07:52:14;;;;;;;10.47;6.00;;;;;;;0.29;87.45;101160.25;5092719;28;20474;-66
2022/01/25 07:54:42;;;;;;;15.37;5.20;;;;;;;0.32;87.97;101168.88;5091696;28;20032;-61
2022/01/25 07:57:07;;;;;;;11.30;6.37;;;;;;;0.38;87.50;101171.13;5092873;28;20410;-69
2022/01/25 07:59:33;;;;;;;13.97;5.50;;;;;;;0.26;86.89;101156.94;5093052;28;20266;-70
2022/01/25 08:01:58;;;;;;;7.77;4.63;;;;;;;0.36;87.46;101170.38;5074947;28;20108;-65
2022/01/25 08:04:25;;;;;;;11.00;3.83;;;;;;;0.36;87.77;101173.84;5093157;28;20036;-66
2022/01/25 08:06:50;;;;;;;7.00;3.83;;;;;;;0.31;87.53;101162.78;5092880;28;20039;-63
2022/01/25 08:09:16;;;;;;;15.40;5.60;;;;;;;0.42;87.58;101175.25;5092354;28;20270;-62
2022/01/25 08:11:43;;;;;;;6.50;4.20;;;;;;;0.39;87.44;101165.81;5092585;28;20059;-70
2022/01/25 08:14:17;;;;;;;10.67;4.20;;;;;;;0.51;86.78;101188.66;5073688;28;20432;-70
2022/01/25 08:16:45;;;;;;;8.37;5.27;;;;;;;0.48;86.56;101182.75;5092137;28;20749;-65
2022/01/25 08:19:13;;;;;;;9.68;4.00;;;;;;;0.50;86.79;101181.75;5092040;28;20313;-62
2022/01/25 08:21:41;;;;;;;9.03;4.20;;;;;;;0.60;86.64;101192.56;5074421;28;20040;-63
2022/01/25 08:24:08;;;;;;;9.50;4.50;;;;;;;0.54;86.20;101180.63;5092622;28;20852;-62
2022/01/25 08:26:33;;;;;;;8.47;5.30;;;;;;;0.56;86.12;101188.41;5094093;28;20275;-66
2022/01/25 08:28:59;;;;;;;12.70;5.70;;;;;;;0.51;86.05;101175.56;5094601;28;20315;-63
2022/01/25 08:31:25;;;;;;;14.37;6.17;;;;;;;-0.04;86.30;101088.81;5092118;28;20067;-65
2022/01/25 08:33:50;;;;;;;10.73;5.47;;;;;;;0.28;85.76;101142.81;5073886;28;20036;-65
2022/01/25 08:36:41;;;;;;;18.87;6.13;;;;;;;0.64;85.60;101175.72;5092139;28;20552;-66
2022/01/25 08:39:07;;;;;;;15.27;5.63;;;;;;;0.60;85.60;101163.72;5091941;28;20270;-65
2022/01/25 08:41:33;;;;;;;9.90;4.87;;;;;;;0.65;85.16;101177.41;5073807;28;20036;-68
2022/01/25 08:43:59;;;;;;;8.90;5.07;;;;;;;0.66;85.23;101176.47;5092221;28;20262;-61
2022/01/25 08:46:25;;;;;;;9.50;5.47;;;;;;;0.66;84.86;101184.34;5091760;28;20060;-63
2022/01/25 08:48:50;;;;;;;9.20;5.10;;;;;;;0.78;84.77;101195.88;5091416;28;20498;-65
2022/01/25 08:51:16;;;;;;;11.13;5.67;;;;;;;0.84;84.18;101203.38;5091579;28;20169;-64
2022/01/25 08:53:42;;;;;;;10.00;4.93;;;;;;;0.86;84.13;101202.34;5073261;28;20028;-63
2022/01/25 08:56:08;;;;;;;13.90;5.10;;;;;;;0.84;83.87;101196.34;5091315;28;20036;-65
2022/01/25 08:58:34;;;;;;;13.13;6.40;;;;;;;0.97;83.58;101212.25;5091635;28;20479;-63
2022/01/25 09:01:00;;;;;;;7.33;4.33;;;;;;;0.87;82.83;101193.59;5073166;28;20285;-64
2022/01/25 09:03:25;;;;;;;8.13;4.97;;;;;;;0.85;82.91;101200.66;5073520;28;20096;-71
2022/01/25 09:05:51;;;;;;;8.17;4.47;;;;;;;0.84;81.91;101213.88;5075233;28;20478;-70
2022/01/25 09:08:22;;;;;;;15.27;8.47;;;;;;;0.81;82.54;101212.28;5095783;28;20109;-64
2022/01/25 09:10:51;;;;;;;7.37;4.70;;;;;;;0.89;81.86;101211.84;5096052;28;20383;-66
2022/01/25 09:13:17;;;;;;;;;;;;;;;0.91;82.01;101213.44;5096623;28;20262;-66
2022/01/25 09:15:43;;;;;;;8.43;5.20;;;;;;;0.64;81.29;101196.69;5095675;28;20332;-65
2022/01/25 09:18:08;;;;;;;15.70;7.33;;;;;;;0.73;81.89;101221.53;5096319;28;20155;-66
2022/01/25 09:20:34;;;;;;;16.13;10.73;;;;;;;0.75;81.95;101210.00;5095265;28;20056;-67
2022/01/25 09:23:04;;;;;;;5.77;4.23;;;;;;;0.79;81.86;101224.63;5095342;28;20055;-66
2022/01/25 09:25:30;;;;;;;8.43;4.23;;;;;;;0.87;81.88;101230.28;5106943;28;20337;-75
2022/01/25 09:27:56;;;;;;;10.97;4.83;;;;;;;0.81;81.47;101212.28;5097889;28;20277;-62
2022/01/25 09:30:22;;;;;;;9.03;5.47;;;;;;;0.97;81.05;101235.00;5115758;28;20330;-67
2022/01/25 09:32:48;;;;;;;7.47;4.27;;;;;;;0.98;80.89;101236.69;5115844;28;20034;-63
2022/01/25 09:35:14;;;;;;;6.40;3.67;;;;;;;1.02;81.13;101240.81;5115676;28;20357;-67
2022/01/25 09:37:40;;;;;;;4.03;3.07;;;;;;;0.76;80.05;101195.97;5114955;28;20065;-66
2022/01/25 09:40:06;;;;;;;5.17;3.63;;;;;;;0.74;80.02;101197.84;5116067;28;20031;-64
2022/01/25 09:42:31;;;;;;;12.43;4.60;;;;;;;0.97;79.44;101237.63;5097139;28;20031;-61
2022/01/25 09:44:58;;;;;;;13.30;4.97;;;;;;;1.08;79.74;101249.16;5115870;28;20258;-68
2022/01/25 09:47:25;;;;;;;9.47;3.37;;;;;;;0.93;78.00;101229.09;5115373;28;20032;-64
2022/01/25 09:49:50;;;;;;;8.27;3.07;;;;;;;1.06;77.90;101239.69;5115415;28;20262;-65
2022/01/25 09:52:17;;;;;;;9.73;4.37;;;;;;;0.90;76.18;101235.34;5115203;28;20632;-67
2022/01/25 09:54:53;;;;;;;4.50;2.77;;;;;;;0.99;76.38;101254.94;5097027;28;20438;-64
2022/01/25 09:57:18;;;;;;;7.07;4.13;;;;;;;1.06;76.35;101260.69;5115056;28;20293;-66
2022/01/25 09:59:44;;;;;;;10.60;3.50;;;;;;;0.78;76.32;101204.59;5096741;28;20322;-68
2022/01/25 10:02:10;;;;;;;6.57;3.10;;;;;;;0.86;75.27;101218.09;5115397;28;20090;-64
2022/01/25 10:04:41;;;;;;;5.17;3.27;;;;;;;0.93;74.72;101237.81;5115470;28;20132;-76
2022/01/25 10:07:10;;;;;;;4.13;2.47;;;;;;;0.91;73.98;101233.59;5115278;28;20500;-70
2022/01/25 10:09:42;;;;;;;;;;;;;;;1.00;74.02;101261.88;5115684;28;20288;-72
2022/01/25 10:12:25;;;;;;;2.67;2.47;;;;;;;0.83;72.87;101281.19;5096535;28;20293;-70
2022/01/25 10:15:08;;;;;;;3.40;2.70;;;;;;;0.78;74.06;101277.16;5114981;28;20269;-75
2022/01/25 10:17:37;;;;;;;4.20;2.33;;;;;;;0.16;74.51;101188.06;5114056;28;20300;-71
2022/01/25 10:20:05;;;;;;;6.18;3.25;;;;;;;0.60;74.99;101273.81;5115682;28;20289;-73
2022/01/25 10:22:46;;;;;;;4.88;2.78;;;;;;;0.56;75.57;101280.97;5096978;28;20047;-70
2022/01/25 10:25:12;;;;;;;7.53;3.53;;;;;;;0.47;74.74;101267.56;5114694;28;20034;-70
2022/01/25 10:27:59;;;;;;;6.30;2.50;;;;;;;0.50;75.76;101270.84;5115408;28;20269;-70
2022/01/25 10:30:25;;;;;;;3.70;2.77;;;;;;;0.47;74.44;101263.16;5097776;28;20035;-69
2022/01/25 10:32:52;;;;;;;5.83;2.73;;;;;;;0.58;75.12;101267.81;5114214;28;20264;-75
2022/01/25 10:35:18;;;;;;;8.30;3.03;;;;;;;0.66;73.96;101265.59;5114502;28;20044;-72
2022/01/25 10:37:44;;;;;;;7.27;2.60;;;;;;;0.67;73.32;101267.28;5114307;28;20363;-68
2022/01/25 10:40:10;;;;;;;5.30;2.00;;;;;;;0.64;73.27;101258.75;5114519;28;20696;-67
2022/01/25 10:42:35;;;;;;;10.57;3.80;;;;;;;0.84;73.79;101267.16;5113692;28;20035;-70
2022/01/25 10:45:05;;;;;;;3.50;2.30;;;;;;;0.84;73.51;101261.06;5096180;28;20356;-69
2022/01/25 10:47:44;;;;;;;7.63;3.63;;;;;;;0.85;74.62;101275.88;5114030;28;20035;-69
2022/01/25 10:50:15;;;;;;;11.17;3.37;;;;;;;0.93;75.04;101271.88;5114177;28;20269;-66
2022/01/25 10:52:42;;;;;;;5.00;2.30;;;;;;;0.96;74.61;101273.50;5114186;28;20272;-67
2022/01/25 10:55:08;;;;;;;5.90;3.43;;;;;;;0.98;74.61;101268.16;5095944;28;20759;-70
2022/01/25 10:57:34;;;;;;;4.47;2.60;;;;;;;0.89;74.15;101265.13;5114014;28;20300;-73
2022/01/25 11:00:11;;;;;;;4.30;3.20;;;;;;;0.98;74.07;101273.41;5114215;28;20281;-74
2022/01/25 11:02:50;;;;;;;7.13;2.70;;;;;;;0.85;73.53;101247.03;5114205;28;20429;-68
2022/01/25 11:05:18;;;;;;;10.30;4.32;;;;;;;0.98;73.87;101265.53;5078903;28;20276;-73
2022/01/25 11:07:44;;;;;;;7.40;2.67;;;;;;;1.08;73.66;101274.53;5113894;28;20066;-71
2022/01/25 11:10:16;;;;;;;4.77;2.57;;;;;;;1.04;72.79;101287.00;5114129;28;20277;-67
2022/01/25 11:12:48;;;;;;;9.53;4.90;;;;;;;0.80;72.90;101272.66;5115945;28;20310;-71
2022/01/25 11:15:15;;;;;;;7.60;4.00;;;;;;;0.54;74.12;101268.91;5097296;28;20265;-70
2022/01/25 11:17:40;;;;;;;6.17;4.20;;;;;;;-0.08;74.64;101192.88;5117035;28;20384;-69
2022/01/25 11:20:07;;;;;;;13.40;3.97;;;;;;;0.36;74.37;101277.81;5122413;28;20313;-77
2022/01/25 11:25:26;;;;;;;6.63;4.17;;;;;;;0.48;74.23;101285.81;5205059;22;20300;-75
2022/01/25 11:27:57;;;;;;;9.03;3.83;;;;;;;0.56;73.96;101290.63;5012686;28;20300;-74
2022/01/25 11:30:22;;;;;;;;;;;;;;;0.68;74.40;101304.84;5013380;28;20291;-74
2022/01/25 11:32:53;;;;;;;2.30;1.90;;;;;;;-0.31;73.96;101154.84;5012877;28;20003;-70
2022/01/25 11:35:24;;;;;;;9.57;3.03;;;;;;;0.65;74.54;101312.88;5013131;28;20045;-69
2022/01/25 11:37:50;;;;;;;6.27;2.60;;;;;;;0.50;74.60;101298.84;5012804;28;20300;-68
2022/01/25 11:40:23;;;;;;;6.03;2.63;;;;;;;0.43;74.76;101311.44;5012730;28;20273;-71
2022/01/25 11:42:51;;;;;;;7.40;3.30;;;;;;;0.34;76.08;101318.97;5012888;28;20273;-70
2022/01/25 11:45:26;;;;;;;7.47;2.72;;;;;;;0.22;75.91;101325.69;5013501;28;20351;-72
2022/01/25 11:47:54;;;;;;;4.60;3.80;;;;;;;0.00;74.54;101336.50;5011542;28;20073;-74
2022/01/25 11:50:25;;;;;;;4.90;2.30;;;;;;;-0.60;75.34;101254.13;5012757;28;20277;-74
2022/01/25 11:52:54;;;;;;;4.77;2.37;;;;;;;-0.24;74.87;101340.38;5012527;28;20401;-75
2022/01/25 11:55:32;;;;;;;8.20;3.40;;;;;;;-0.39;75.08;101324.53;5012608;28;20280;-74
2022/01/25 11:58:14;;;;;;;2.92;1.92;;;;;;;-0.46;74.92;101336.25;5012765;28;20080;-74
2022/01/25 12:00:47;;;;;;;8.30;2.73;;;;;;;-0.48;75.33;101335.47;5012420;28;20034;-73
2022/01/25 12:03:27;;;;;;;5.90;2.97;;;;;;;-0.58;75.40;101336.84;5012570;28;20701;-74
2022/01/25 12:06:32;;;;;;;6.73;3.03;;;;;;;-0.75;75.85;101308.94;5012338;28;20276;-75
2022/01/25 12:10:12;;;;;;;3.53;2.80;;;;;;;-0.75;75.80;101321.16;4996304;28;20265;-71
2022/01/25 12:12:09;;;;;;;8.87;3.77;;;;;;;-0.60;75.42;101345.69;5008187;28;20637;-70
2022/01/25 12:14:54;;;;;;;2.70;2.23;;;;;;;-0.64;75.34;101347.63;5011309;28;20627;-72
2022/01/25 12:17:35;;;;;;;10.40;3.30;;;;;;;-0.61;76.42;101344.84;5027418;28;20288;-71
2022/01/25 12:20:17;;;;;;;8.17;2.47;;;;;;;-0.71;76.01;101333.16;5012570;28;20277;-70
2022/01/25 12:22:47;;;;;;;20.70;4.67;;;;;;;-0.69;77.17;101337.41;5027154;28;20273;-73
2022/01/25 12:25:18;;;;;;;7.93;3.53;;;;;;;-0.77;77.09;101328.25;5011924;28;20855;-73
2022/01/25 12:27:57;;;;;;;10.37;3.60;;;;;;;-0.63;77.67;101351.94;5029462;28;20292;-72
2022/01/25 12:30:48;;;;;;;5.20;3.17;;;;;;;-0.77;77.06;101336.09;5026724;28;20283;-73
2022/01/25 12:33:27;;;;;;;3.60;2.60;;;;;;;-0.79;76.82;101336.19;5032100;28;20284;-73
2022/01/25 12:36:03;;;;;;;8.40;3.07;;;;;;;-0.69;76.83;101362.72;5033446;28;20272;-74
2022/01/25 12:38:37;;;;;;;5.80;3.17;;;;;;;-0.72;77.88;101362.88;5032161;28;20292;-72
2022/01/25 12:41:10;;;;;;;6.67;3.30;;;;;;;-0.73;77.87;101371.63;5031577;28;20794;-72
2022/01/25 12:44:05;;;;;;;10.17;2.97;;;;;;;-0.70;77.38;101371.47;5013587;28;20279;-72
2022/01/25 12:46:37;;;;;;;7.63;2.73;;;;;;;-0.74;77.02;101365.56;5028248;28;20650;-70
2022/01/25 12:49:10;;;;;;;6.30;2.77;;;;;;;-0.75;75.86;101363.00;5030277;28;20257;-71
2022/01/25 12:52:05;;;;;;;7.97;3.47;;;;;;;-0.79;76.85;101378.00;5031460;28;20763;-76
2022/01/25 12:54:36;;;;;;;4.97;3.63;;;;;;;-0.87;76.81;101374.06;5046083;28;20275;-72
2022/01/25 12:57:08;;;;;;;8.63;2.53;;;;;;;-0.85;76.15;101393.16;5013626;28;20291;-74
2022/01/25 12:59:34;;;;;;;8.70;3.93;;;;;;;-0.94;76.34;101365.66;5030332;28;20275;-75
2022/01/25 13:02:03;;;;;;;4.50;2.80;;;;;;;-0.98;76.40;101366.75;5031447;28;20658;-77
2022/01/25 13:04:29;;;;;;;7.47;3.13;;;;;;;-0.94;76.81;101379.59;5031706;28;20079;-72
2022/01/25 13:06:56;;;;;;;8.90;2.80;;;;;;;-1.25;76.85;101342.78;5031637;28;20030;-70
2022/01/25 13:10:00;;;;;;;5.67;2.67;;;;;;;-1.05;77.23;101381.88;5031083;28;20304;-68
2022/01/25 13:12:36;;;;;;;6.07;2.77;;;;;;;-1.07;77.51;101394.19;5029765;28;20778;-71
2022/01/25 13:17:49;;;;;;;4.00;3.47;;;;;;;-1.26;77.92;101382.91;4990926;28;20422;-72
2022/01/25 13:20:15;;;;;;;3.57;2.80;;;;;;;-1.13;78.89;101398.88;5031734;28;20836;-71
2022/01/25 13:22:42;;;;;;;7.87;2.57;;;;;;;-1.19;79.00;101399.97;5031627;28;20400;-72
2022/01/25 13:25:34;;;;;;;6.07;2.90;;;;;;;-1.54;79.06;101362.44;5031330;28;20033;-71
2022/01/25 13:31:23;;;;;;;4.32;2.67;;;;;;;-1.16;78.70;101425.97;5019867;28;20662;-73